Time;durP1;ratioP1;P1;durP2;ratioP2;P2;SDS_P1;SDS_P2;PMS_P1;PMS_P2;Temp;Humidity;BMP_temperature;BMP_pressure;BME280_temperature;BME280_humidity;BME280_pressure;Samples;Min_cycle;Max_cycle;Signal;HPM_P1;HPM_P2
2021/11/08 00:00:37;;;;;;;23.28;14.96;;;;;;;;;;353791;150;865073;-60
2021/11/08 00:01:39;;;;;;;26.47;15.20;;;;;;;;;;355020;150;860059;-57
2021/11/08 00:02:44;;;;;;;23.17;15.22;;;;;;;;;;353445;151;857274;-55
2021/11/08 00:03:47;;;;;;;23.77;15.50;;;;;;;;;;351320;152;858053;-57
2021/11/08 00:04:50;;;;;;;28.67;15.46;;;;;;;;;;353153;148;857718;-58
2021/11/08 00:05:51;;;;;;;27.18;15.94;;;;;;;;;;352330;148;857411;-57
2021/11/08 00:06:54;;;;;;;24.21;14.94;;;;;;;;;;350183;151;859092;-58
2021/11/08 00:08:01;;;;;;;25.65;15.23;;;;;;;;;;353267;152;865047;-58
2021/11/08 00:08:59;;;;;;;23.65;14.59;;;;;;;;;;352037;148;857194;-58
2021/11/08 00:10:01;;;;;;;27.17;15.49;;;;;;;;;;352027;150;858864;-58
2021/11/08 00:11:03;;;;;;;25.35;15.40;;;;;;;;;;353287;152;858027;-57
2021/11/08 00:12:05;;;;;;;31.76;15.81;;;;;;;;;;350143;148;857357;-58
2021/11/08 00:13:08;;;;;;;27.19;15.01;;;;;;;;;;353324;152;859550;-58
2021/11/08 00:14:12;;;;;;;24.98;15.80;;;;;;;;;;354001;151;865915;-57
2021/11/08 00:15:16;;;;;;;25.57;14.61;;;;;;;;;;350638;150;857900;-58
2021/11/08 00:16:29;;;;;;;20.51;12.24;;;;;;;;;;353039;148;857338;-58
2021/11/08 00:20:47;;;;;;;28.07;15.89;;;;;;;;;;349588;152;866048;-59
2021/11/08 00:21:50;;;;;;;21.25;13.28;;;;;;;;;;353724;151;857276;-59
2021/11/08 00:22:51;;;;;;;25.07;14.34;;;;;;;;;;352475;148;867101;-59
2021/11/08 00:23:53;;;;;;;25.37;14.49;;;;;;;;;;351849;150;857299;-59
2021/11/08 00:24:55;;;;;;;25.71;14.46;;;;;;;;;;348261;151;864861;-59
2021/11/08 00:25:57;;;;;;;24.01;14.23;;;;;;;;;;354244;148;865490;-59
2021/11/08 00:27:00;;;;;;;25.27;15.98;;;;;;;;;;352489;150;857438;-59
2021/11/08 00:28:01;;;;;;;27.31;14.43;;;;;;;;;;353358;151;857670;-59
2021/11/08 00:29:03;;;;;;;23.07;13.71;;;;;;;;;;353816;150;861920;-58
2021/11/08 00:30:06;;;;;;;24.54;15.06;;;;;;;;;;352118;151;858132;-59
2021/11/08 00:31:08;;;;;;;23.42;14.33;;;;;;;;;;353968;150;865897;-58
2021/11/08 00:32:10;;;;;;;25.41;14.64;;;;;;;;;;351093;151;857352;-58
2021/11/08 00:33:17;;;;;;;24.86;15.11;;;;;;;;;;354148;150;860031;-58
2021/11/08 00:34:19;;;;;;;22.57;14.39;;;;;;;;;;353254;150;865555;-58
2021/11/08 00:35:21;;;;;;;23.01;14.58;;;;;;;;;;354479;150;857185;-58
2021/11/08 00:36:22;;;;;;;26.78;15.17;;;;;;;;;;354096;150;864929;-57
2021/11/08 00:37:24;;;;;;;25.81;14.99;;;;;;;;;;353006;150;858484;-60
2021/11/08 00:38:26;;;;;;;24.01;14.95;;;;;;;;;;352133;149;857496;-58
2021/11/08 00:39:27;;;;;;;25.75;14.89;;;;;;;;;;347873;151;857467;-57
2021/11/08 00:40:31;;;;;;;25.26;15.93;;;;;;;;;;353281;148;858836;-57
2021/11/08 00:41:33;;;;;;;25.20;14.18;;;;;;;;;;351849;148;857631;-57
2021/11/08 00:42:36;;;;;;;29.19;13.88;;;;;;;;;;350805;151;858797;-59
2021/11/08 00:43:38;;;;;;;25.53;14.87;;;;;;;;;;354369;150;858098;-60
2021/11/08 00:44:39;;;;;;;20.79;12.87;;;;;;;;;;340388;158;865165;-57
2021/11/08 00:45:41;;;;;;;26.77;15.04;;;;;;;;;;340014;155;858789;-58
2021/11/08 00:46:43;;;;;;;26.73;15.19;;;;;;;;;;344379;155;860004;-58
2021/11/08 00:47:44;;;;;;;26.86;14.89;;;;;;;;;;345163;151;857582;-59
2021/11/08 00:48:46;;;;;;;24.44;14.09;;;;;;;;;;346283;153;865123;-59
2021/11/08 00:49:49;;;;;;;23.93;14.87;;;;;;;;;;341189;157;857373;-58
2021/11/08 00:50:51;;;;;;;27.40;14.82;;;;;;;;;;339433;154;857690;-58
2021/11/08 00:51:53;;;;;;;18.21;10.11;;;;;;;;;;338717;154;858218;-57
2021/11/08 00:52:55;;;;;;;23.12;14.05;;;;;;;;;;343571;155;857231;-58
2021/11/08 00:53:56;;;;;;;24.18;14.90;;;;;;;;;;343645;155;857172;-57
2021/11/08 00:54:58;;;;;;;24.93;15.16;;;;;;;;;;337997;155;857386;-58
2021/11/08 00:56:03;;;;;;;21.48;14.49;;;;;;;;;;342830;154;859479;-58
2021/11/08 00:57:06;;;;;;;23.69;14.38;;;;;;;;;;342427;155;859757;-57
2021/11/08 00:58:13;;;;;;;25.64;14.31;;;;;;;;;;343490;154;859140;-57
2021/11/08 00:59:15;;;;;;;24.26;13.81;;;;;;;;;;344646;154;857211;-57
2021/11/08 01:00:18;;;;;;;22.78;14.70;;;;;;;;;;346099;155;857266;-58
2021/11/08 01:01:21;;;;;;;29.27;15.01;;;;;;;;;;346633;155;858531;-57
2021/11/08 01:02:29;;;;;;;27.02;15.74;;;;;;;;;;344504;153;858596;-57
2021/11/08 01:03:27;;;;;;;23.16;14.36;;;;;;;;;;339840;152;858923;-58
2021/11/08 01:04:28;;;;;;;24.44;14.55;;;;;;;;;;345033;154;857628;-58
2021/11/08 01:05:30;;;;;;;23.69;14.20;;;;;;;;;;346657;154;865148;-59
2021/11/08 01:06:32;;;;;;;26.01;13.42;;;;;;;;;;360471;148;857452;-58
2021/11/08 01:07:33;;;;;;;24.34;13.09;;;;;;;;;;358603;147;864884;-58
2021/11/08 01:08:35;;;;;;;23.44;14.86;;;;;;;;;;359798;146;859722;-58
2021/11/08 01:09:37;;;;;;;27.22;13.54;;;;;;;;;;359736;147;865449;-58
2021/11/08 01:10:38;;;;;;;25.26;15.46;;;;;;;;;;360147;148;866724;-58
2021/11/08 01:11:40;;;;;;;29.01;15.96;;;;;;;;;;356639;146;857353;-57
2021/11/08 01:12:42;;;;;;;22.31;13.50;;;;;;;;;;359718;147;865029;-58
2021/11/08 01:13:44;;;;;;;22.77;13.19;;;;;;;;;;359592;149;857325;-56
2021/11/08 01:14:45;;;;;;;21.25;13.56;;;;;;;;;;357737;147;857469;-57
2021/11/08 01:15:47;;;;;;;25.11;14.67;;;;;;;;;;359048;147;857354;-57
2021/11/08 01:16:56;;;;;;;23.63;14.87;;;;;;;;;;358772;147;866640;-57
2021/11/08 01:17:52;;;;;;;21.97;13.04;;;;;;;;;;359071;147;857205;-57
2021/11/08 01:18:55;;;;;;;22.11;13.34;;;;;;;;;;359072;149;859100;-57
2021/11/08 01:19:56;;;;;;;22.89;14.61;;;;;;;;;;357347;147;867234;-57
2021/11/08 08:04:09;;;;;;;13.97;7.51;;;;;;;6.66;74.87;99644.00;370080;142;880494;-61
2021/11/08 08:05:10;;;;;;;16.80;8.54;;;;;;;6.61;74.94;99645.70;362075;144;859699;-61
2021/11/08 08:06:13;;;;;;;13.33;8.15;;;;;;;6.62;74.93;99639.70;361831;145;859097;-60
2021/11/08 08:07:15;;;;;;;11.99;7.15;;;;;;;6.65;74.91;99655.98;362619;144;856474;-60
2021/11/08 08:08:17;;;;;;;11.83;6.56;;;;;;;6.71;74.82;99652.59;362452;145;856243;-63
2021/11/08 08:09:19;;;;;;;12.52;7.11;;;;;;;6.84;74.76;99654.34;361584;144;863894;-60
2021/11/08 08:10:21;;;;;;;13.56;7.17;;;;;;;7.00;74.43;99651.80;362186;145;863920;-63
2021/11/08 08:11:23;;;;;;;12.20;6.87;;;;;;;7.10;72.63;99663.83;361859;145;856675;-63
2021/11/08 08:12:25;;;;;;;11.93;6.23;;;;;;;7.30;72.57;99666.45;362460;144;856715;-62
2021/11/08 08:13:28;;;;;;;11.01;6.92;;;;;;;7.53;72.77;99667.33;362129;144;856812;-61
2021/11/08 08:14:30;;;;;;;12.41;6.56;;;;;;;7.78;72.22;99662.16;361930;144;856543;-60
2021/11/08 08:15:32;;;;;;;10.73;6.47;;;;;;;8.01;71.16;99667.28;361759;145;863969;-62
2021/11/08 08:16:34;;;;;;;10.45;6.48;;;;;;;8.06;68.90;99662.10;362631;144;856585;-61
2021/11/08 08:17:37;;;;;;;9.98;6.19;;;;;;;8.23;69.71;99651.76;361609;145;856794;-62
2021/11/08 08:18:39;;;;;;;10.78;6.38;;;;;;;8.40;69.18;99655.14;362307;144;864065;-61
2021/11/08 08:19:41;;;;;;;12.90;7.64;;;;;;;8.58;69.04;99666.27;362696;144;856785;-61
2021/11/08 08:20:42;;;;;;;12.70;7.78;;;;;;;8.72;68.02;99659.33;357635;147;864172;-61
2021/11/08 08:21:44;;;;;;;14.00;8.03;;;;;;;8.73;67.50;99660.20;357797;147;856399;-61
2021/11/08 08:22:47;;;;;;;14.31;8.07;;;;;;;8.91;67.62;99651.48;357817;147;856621;-62
2021/11/08 08:23:53;;;;;;;14.61;8.96;;;;;;;9.05;66.58;99664.31;357881;147;856359;-60
2021/11/08 08:24:54;;;;;;;12.77;7.67;;;;;;;9.16;66.92;99665.10;357386;147;864740;-63
2021/11/08 08:25:55;;;;;;;13.44;8.15;;;;;;;9.25;65.40;99652.98;357432;147;856624;-61
2021/11/08 08:26:57;;;;;;;14.26;8.65;;;;;;;9.29;65.07;99654.68;357554;147;856366;-62
2021/11/08 08:27:59;;;;;;;15.13;8.86;;;;;;;9.34;66.47;99660.67;357155;147;856343;-61
2021/11/08 08:29:07;;;;;;;12.94;8.54;;;;;;;9.25;65.19;99655.57;357659;147;863948;-65
2021/11/08 08:30:06;;;;;;;15.86;8.81;;;;;;;9.33;65.17;99652.08;357266;147;857138;-63
2021/11/08 08:31:08;;;;;;;14.63;9.06;;;;;;;9.28;64.58;99656.42;357675;147;856139;-61
2021/11/08 08:32:10;;;;;;;13.05;7.95;;;;;;;9.17;64.88;99660.81;357765;147;856073;-63
2021/11/08 08:33:12;;;;;;;14.83;8.42;;;;;;;9.31;65.47;99652.94;357513;147;856693;-63
2021/11/08 08:34:15;;;;;;;13.24;8.65;;;;;;;9.39;65.39;99656.33;357689;147;856910;-61
2021/11/08 08:35:16;;;;;;;14.67;9.22;;;;;;;9.25;64.45;99656.45;357687;147;856370;-62
2021/11/08 08:36:19;;;;;;;14.10;8.06;;;;;;;9.29;63.80;99654.68;357468;147;856839;-60
2021/11/08 08:37:20;;;;;;;17.58;9.58;;;;;;;9.38;64.65;99654.61;357302;147;856757;-60
2021/11/08 08:38:22;;;;;;;14.21;9.16;;;;;;;9.46;64.83;99657.98;357424;147;856481;-63
2021/11/08 08:39:24;;;;;;;15.19;8.83;;;;;;;9.54;64.55;99662.23;357803;147;856101;-62
2021/11/08 08:40:26;;;;;;;13.89;8.65;;;;;;;9.54;63.33;99660.53;357718;147;856237;-61
2021/11/08 08:41:28;;;;;;;11.65;7.01;;;;;;;9.54;63.02;99652.77;357403;147;856145;-63
2021/11/08 08:42:30;;;;;;;14.15;9.03;;;;;;;9.61;64.30;99651.01;357751;147;857029;-62
2021/11/08 08:43:31;;;;;;;13.55;8.94;;;;;;;9.01;64.39;99663.49;357747;147;856791;-61
2021/11/08 08:44:33;;;;;;;13.69;7.96;;;;;;;9.16;64.81;99659.94;357153;147;863807;-60
2021/11/08 08:45:36;;;;;;;16.64;9.69;;;;;;;9.36;64.77;99658.94;357366;147;863984;-61
2021/11/08 08:46:38;;;;;;;19.06;9.89;;;;;;;9.49;64.43;99654.54;357240;147;856947;-61
2021/11/08 08:47:40;;;;;;;16.69;8.91;;;;;;;9.48;63.22;99657.99;357720;147;864728;-63
2021/11/08 08:48:42;;;;;;;14.14;8.26;;;;;;;9.55;63.10;99659.66;357832;147;863994;-64
2021/11/08 08:49:44;;;;;;;15.72;9.51;;;;;;;9.50;63.39;99658.84;357392;147;856757;-64
2021/11/08 08:50:46;;;;;;;14.52;9.10;;;;;;;9.58;64.12;99657.05;357454;147;856295;-62
2021/11/08 08:51:48;;;;;;;15.67;8.60;;;;;;;9.77;63.54;99656.88;357561;147;856287;-60
2021/11/08 08:52:50;;;;;;;12.25;8.18;;;;;;;9.78;62.42;99654.30;357499;147;856407;-61
2021/11/08 08:53:52;;;;;;;13.25;7.68;;;;;;;9.93;61.43;99665.36;357925;147;856227;-61
2021/11/08 08:54:54;;;;;;;15.02;8.96;;;;;;;10.11;62.95;99655.69;357723;147;856113;-63
2021/11/08 08:55:56;;;;;;;12.86;8.41;;;;;;;10.07;60.87;99657.44;357057;147;856919;-60
2021/11/08 08:56:59;;;;;;;15.11;7.93;;;;;;;10.11;61.76;99655.69;357891;147;856270;-62
2021/11/08 08:58:00;;;;;;;12.79;8.11;;;;;;;10.26;62.21;99652.94;357769;147;856191;-61
2021/11/08 08:59:03;;;;;;;9.17;5.77;;;;;;;10.19;60.78;99646.12;357946;147;856426;-60
2021/11/08 09:00:07;;;;;;;13.07;6.59;;;;;;;10.04;61.60;99653.17;351189;150;856802;-61
2021/11/08 09:01:09;;;;;;;11.36;6.98;;;;;;;10.15;61.60;99654.78;344208;152;863963;-61
2021/11/08 09:02:11;;;;;;;13.37;7.60;;;;;;;10.18;61.14;99655.63;358537;147;856403;-62
2021/11/08 09:03:14;;;;;;;14.07;8.03;;;;;;;;;;357358;147;856269;-61
2021/11/08 09:04:15;;;;;;;12.48;7.80;;;;;;;;;;356986;147;857215;-60
2021/11/08 09:05:18;;;;;;;10.36;7.04;;;;;;;;;;355572;149;857181;-61
2021/11/08 09:06:19;;;;;;;11.01;7.45;;;;;;;;;;355756;149;863901;-60
2021/11/08 09:07:21;;;;;;;11.14;7.17;;;;;;;;;;355863;149;856104;-62
2021/11/08 09:08:23;;;;;;;11.98;7.40;;;;;;;;;;355322;149;856136;-61
2021/11/08 09:09:25;;;;;;;10.33;7.78;;;;;;;;;;347485;151;864184;-61
2021/11/08 09:10:29;;;;;;;13.93;7.03;;;;;;;;;;347993;151;857348;-61
2021/11/08 09:11:31;;;;;;;11.13;6.28;;;;;;;;;;342158;154;856477;-66
2021/11/08 09:12:33;;;;;;;10.85;7.05;;;;;;;;;;349000;151;856314;-61
2021/11/08 09:13:35;;;;;;;17.64;7.25;;;;;;;;;;348868;151;856217;-61
2021/11/08 09:14:38;;;;;;;10.19;6.41;;;;;;;;;;348833;152;856431;-61
2021/11/08 09:15:40;;;;;;;10.90;6.91;;;;;;;;;;342382;154;856627;-61
2021/11/08 09:16:41;;;;;;;12.01;6.86;;;;;;;;;;343930;154;856751;-61
2021/11/08 09:17:43;;;;;;;12.11;7.81;;;;;;;;;;343657;154;856366;-62
2021/11/08 09:18:45;;;;;;;10.19;5.50;;;;;;;;;;344144;154;863997;-61
2021/11/08 09:19:47;;;;;;;13.79;7.33;;;;;;;;;;340567;155;864461;-60
2021/11/08 09:20:49;;;;;;;12.66;7.49;;;;;;;;;;341207;155;856261;-60
2021/11/08 09:21:51;;;;;;;11.01;5.89;;;;;;;;;;344651;153;856771;-60
2021/11/08 09:22:53;;;;;;;11.41;6.73;;;;;;;;;;344378;154;864037;-60
2021/11/08 09:23:58;;;;;;;11.88;6.12;;;;;;;;;;330020;159;863797;-60
2021/11/08 09:25:00;;;;;;;9.96;6.14;;;;;;;;;;350477;150;856732;-60
2021/11/08 09:26:02;;;;;;;8.07;4.66;;;;;;;;;;357185;150;864381;-60
2021/11/08 09:27:04;;;;;;;8.61;6.31;;;;;;;;;;356460;149;856519;-61
2021/11/08 09:28:06;;;;;;;10.95;6.75;;;;;;;;;;356759;149;856438;-60
2021/11/08 09:29:08;;;;;;;10.15;6.34;;;;;;;;;;355969;150;856111;-60
2021/11/08 09:30:10;;;;;;;8.95;6.22;;;;;;;;;;357095;150;864284;-60
2021/11/08 09:31:12;;;;;;;6.97;4.95;;;;;;;;;;349009;151;864386;-60
2021/11/08 09:32:13;;;;;;;8.60;5.16;;;;;;;;;;349141;151;856913;-60
2021/11/08 09:33:15;;;;;;;8.46;5.63;;;;;;;;;;342543;154;864556;-60
2021/11/08 09:34:21;;;;;;;8.45;5.69;;;;;;;;;;349436;151;863886;-61
2021/11/08 09:35:20;;;;;;;10.87;6.14;;;;;;;;;;356331;149;858153;-61
2021/11/08 09:36:24;;;;;;;10.61;6.43;;;;;;;;;;357720;149;863834;-59
2021/11/08 09:37:31;;;;;;;11.20;6.07;;;;;;;;;;357057;150;856056;-60
2021/11/08 09:38:29;;;;;;;8.52;4.80;;;;;;;;;;356086;149;856338;-60
2021/11/08 09:39:34;;;;;;;9.92;5.99;;;;;;;;;;356362;149;856704;-62
2021/11/08 09:40:34;;;;;;;11.16;5.25;;;;;;;;;;354657;150;856080;-62
2021/11/08 09:41:36;;;;;;;9.59;5.48;;;;;;;;;;354099;150;856203;-61
2021/11/08 09:42:38;;;;;;;10.79;5.41;;;;;;;;;;353916;149;863958;-59
2021/11/08 09:43:40;;;;;;;7.26;5.05;;;;;;;;;;354149;149;856479;-58
2021/11/08 09:44:42;;;;;;;8.91;5.70;;;;;;;;;;357196;150;856725;-57
2021/11/08 09:45:43;;;;;;;10.78;5.41;;;;;;;;;;357200;149;864104;-58
2021/11/08 09:46:45;;;;;;;10.86;5.51;;;;;;;;;;357285;149;864869;-57
2021/11/08 09:47:46;;;;;;;9.36;5.31;;;;;;;;;;357075;149;863889;-58
2021/11/08 09:48:49;;;;;;;12.79;5.79;;;;;;;;;;357623;148;856199;-59
2021/11/08 09:49:51;;;;;;;9.61;5.15;;;;;;;;;;354385;148;856351;-57
2021/11/08 09:50:53;;;;;;;8.40;5.42;;;;;;;;;;358668;149;864450;-58
2021/11/08 09:51:54;;;;;;;10.23;5.56;;;;;;;;;;357120;150;856786;-59
2021/11/08 09:52:56;;;;;;;10.06;5.31;;;;;;;;;;356154;150;864466;-58
2021/11/08 09:53:58;;;;;;;13.84;4.93;;;;;;;;;;357374;149;856779;-62
2021/11/08 09:55:00;;;;;;;21.35;5.86;;;;;;;;;;356071;149;863997;-59
2021/11/08 09:56:02;;;;;;;8.79;4.97;;;;;;;;;;343582;156;863844;-58
2021/11/08 09:57:04;;;;;;;11.25;4.59;;;;;;;;;;344768;150;856380;-58
2021/11/08 09:58:05;;;;;;;10.76;4.56;;;;;;;;;;358430;149;856671;-58
2021/11/08 09:59:07;;;;;;;10.89;4.56;;;;;;;;;;357460;150;863808;-57
2021/11/08 10:00:18;;;;;;;10.67;5.17;;;;;;;;;;357678;148;856881;-59
2021/11/08 10:01:20;;;;;;;8.57;4.19;;;;;;;;;;357379;149;856154;-58
2021/11/08 10:02:21;;;;;;;8.18;4.47;;;;;;;;;;356225;149;856957;-57
2021/11/08 10:03:24;;;;;;;6.81;3.95;;;;;;;;;;357125;150;856102;-57
2021/11/08 10:04:26;;;;;;;8.85;4.41;;;;;;;;;;354828;148;863714;-57
2021/11/08 10:05:30;;;;;;;6.55;4.01;;;;;;;;;;361452;147;856062;-57
2021/11/08 10:06:32;;;;;;;6.71;4.03;;;;;;;;;;357129;147;863611;-58
2021/11/08 10:07:33;;;;;;;7.48;4.05;;;;;;;;;;358478;148;863819;-58
2021/11/08 10:08:35;;;;;;;7.34;4.61;;;;;;;;;;358596;147;856431;-56
2021/11/08 10:09:38;;;;;;;8.81;3.91;;;;;;;;;;356668;147;863542;-57
2021/11/08 10:10:40;;;;;;;8.25;3.90;;;;;;;;;;358989;149;856754;-58
2021/11/08 10:11:44;;;;;;;6.64;3.64;;;;;;;;;;356656;147;863984;-56
2021/11/08 10:12:49;;;;;;;7.12;3.61;;;;;;;;;;356838;148;856806;-57
2021/11/08 10:13:50;;;;;;;5.70;3.14;;;;;;;;;;356827;149;856337;-57
2021/11/08 10:14:52;;;;;;;7.75;3.81;;;;;;;;;;356191;148;856339;-57
2021/11/08 10:15:55;;;;;;;7.52;3.82;;;;;;;;;;357881;147;863648;-56
2021/11/08 10:16:58;;;;;;;8.60;3.48;;;;;;;;;;358661;148;856326;-59
2021/11/08 10:18:01;;;;;;;7.58;3.25;;;;;;;;;;357924;149;856548;-56
2021/11/08 10:19:03;;;;;;;5.98;3.26;;;;;;;;;;357429;148;857080;-56
2021/11/08 10:20:06;;;;;;;6.49;3.43;;;;;;;;;;358412;147;856158;-57
2021/11/08 10:21:08;;;;;;;4.16;3.03;;;;;;;;;;357442;147;863607;-56
2021/11/08 10:22:10;;;;;;;7.61;3.13;;;;;;;;;;358553;148;856249;-59
2021/11/08 10:23:13;;;;;;;8.59;3.49;;;;;;;;;;352376;150;863988;-57
2021/11/08 10:24:15;;;;;;;7.38;3.61;;;;;;;;;;350493;150;856535;-57
2021/11/08 10:25:17;;;;;;;7.24;3.42;;;;;;;;;;359045;150;856174;-57
2021/11/08 10:26:20;;;;;;;7.76;3.42;;;;;;;;;;358475;147;863926;-56
2021/11/08 10:27:21;;;;;;;7.54;3.23;;;;;;;;;;358853;148;863635;-56
2021/11/08 10:28:24;;;;;;;6.05;3.26;;;;;;;;;;352066;152;856234;-57
2021/11/08 10:29:26;;;;;;;13.06;6.39;;;;;;;;;;351915;148;856302;-57
2021/11/08 10:30:30;;;;;;;5.85;3.55;;;;;;;;;;352348;150;863766;-57
2021/11/08 10:31:34;;;;;;;4.92;3.16;;;;;;;;;;352050;150;856125;-58
2021/11/08 10:32:35;;;;;;;8.21;2.87;;;;;;;;;;358711;150;856063;-58
2021/11/08 10:33:38;;;;;;;6.75;3.00;;;;;;;;;;359623;148;856361;-57
2021/11/08 10:34:52;;;;;;;5.03;2.69;;;;;;;;;;359112;148;859690;-57
2021/11/08 10:35:54;;;;;;;8.69;3.16;;;;;;;;;;360382;148;856237;-58
2021/11/08 10:37:01;;;;;;;8.29;3.72;;;;;;;;;;358932;148;856136;-56
2021/11/08 10:38:04;;;;;;;8.15;3.38;;;;;;;;;;357777;147;856671;-57
2021/11/08 10:39:06;;;;;;;7.18;3.48;;;;;;;;;;356683;148;856383;-56
2021/11/08 10:40:10;;;;;;;7.57;3.28;;;;;;;;;;359769;147;856590;-57
2021/11/08 10:41:14;;;;;;;8.15;2.70;;;;;;;;;;357139;148;862436;-57
2021/11/08 10:42:20;;;;;;;6.51;3.11;;;;;;;;;;356970;147;856273;-57
2021/11/08 10:43:25;;;;;;;6.91;2.93;;;;;;;;;;358787;150;856723;-57
2021/11/08 10:44:28;;;;;;;7.64;3.15;;;;;;;;;;352040;151;856273;-57
2021/11/08 10:45:29;;;;;;;5.53;2.46;;;;;;;;;;351210;150;856326;-58
2021/11/08 10:46:32;;;;;;;6.51;2.41;;;;;;;;;;358391;148;856594;-57
2021/11/08 10:47:35;;;;;;;10.13;2.92;;;;;;;;;;353217;151;856217;-57
2021/11/08 10:48:38;;;;;;;5.45;2.81;;;;;;;;;;358516;148;856426;-57
2021/11/08 10:49:42;;;;;;;4.37;2.58;;;;;;;;;;358521;147;863588;-57
2021/11/08 10:50:44;;;;;;;6.07;2.79;;;;;;;;;;357801;149;856364;-55
2021/11/08 10:51:47;;;;;;;6.60;2.94;;;;;;;;;;358026;147;856543;-56
2021/11/08 10:52:51;;;;;;;7.58;2.54;;;;;;;;;;358630;147;856200;-55
2021/11/08 10:53:54;;;;;;;4.16;2.13;;;;;;;;;;356938;149;856229;-56
2021/11/08 10:54:57;;;;;;;3.98;2.16;;;;;;;;;;357680;149;864157;-56
2021/11/08 10:56:06;;;;;;;8.05;3.77;;;;;;;;;;357622;147;856771;-55
2021/11/08 10:57:05;;;;;;;9.07;3.34;;;;;;;;;;357874;147;863684;-55
2021/11/08 10:58:08;;;;;;;6.29;2.91;;;;;;;;;;357317;149;856597;-55
2021/11/08 10:59:11;;;;;;;7.17;2.51;;;;;;;;;;359513;147;856892;-56
2021/11/08 11:00:14;;;;;;;4.06;2.21;;;;;;;;;;357048;147;864874;-55
2021/11/08 11:01:19;;;;;;;6.02;2.43;;;;;;;;;;359023;148;856540;-56
2021/11/08 11:02:22;;;;;;;6.76;2.77;;;;;;;;;;356639;147;856364;-55
2021/11/08 11:03:24;;;;;;;7.33;2.85;;;;;;;;;;357557;148;856113;-56
2021/11/08 11:04:45;;;;;;;7.14;2.58;;;;;;;;;;358837;148;863740;-55
2021/11/08 11:05:46;;;;;;;6.88;2.72;;;;;;;;;;352659;152;857335;-57
2021/11/08 11:06:49;;;;;;;5.27;2.43;;;;;;;;;;356342;147;856666;-55
2021/11/08 11:07:51;;;;;;;4.89;2.87;;;;;;;;;;359010;147;856883;-56
2021/11/08 11:08:57;;;;;;;6.35;2.50;;;;;;;;;;358224;148;856047;-57
2021/11/08 11:09:58;;;;;;;5.75;2.59;;;;;;;;;;356850;148;856797;-56
2021/11/08 11:11:01;;;;;;;7.13;2.83;;;;;;;;;;358500;147;856478;-55
2021/11/08 11:12:07;;;;;;;4.30;2.48;;;;;;;;;;356187;147;856081;-55
2021/11/08 11:13:14;;;;;;;5.67;2.31;;;;;;;;;;351468;150;863676;-56
2021/11/08 11:14:15;;;;;;;5.31;2.13;;;;;;;;;;357592;148;856080;-56
2021/11/08 11:15:18;;;;;;;5.59;2.39;;;;;;;;;;358435;148;856226;-56
2021/11/08 11:16:30;;;;;;;4.38;2.67;;;;;;;;;;356713;150;856178;-56
2021/11/08 11:17:33;;;;;;;8.25;3.03;;;;;;;;;;356935;147;863621;-56
2021/11/08 11:18:36;;;;;;;7.03;3.37;;;;;;;;;;359363;147;856649;-57
2021/11/08 11:19:38;;;;;;;6.44;2.90;;;;;;;;;;355275;147;864179;-56
2021/11/08 11:20:44;;;;;;;9.25;3.15;;;;;;;;;;356275;147;856124;-56
2021/11/08 11:21:54;;;;;;;5.62;2.71;;;;;;;;;;358588;148;856301;-56
2021/11/08 11:23:05;;;;;;;6.01;2.93;;;;;;;;;;359647;148;862608;-57
2021/11/08 11:24:06;;;;;;;6.42;2.69;;;;;;;;;;355354;151;856635;-56
2021/11/08 11:25:08;;;;;;;6.27;3.06;;;;;;;;;;357825;148;856256;-56
2021/11/08 11:26:12;;;;;;;4.68;2.63;;;;;;;;;;358720;148;856087;-56
2021/11/08 11:27:17;;;;;;;6.24;2.64;;;;;;;;;;358697;147;856067;-55
2021/11/08 11:28:23;;;;;;;6.15;2.74;;;;;;;;;;357562;148;864469;-58
2021/11/08 11:29:27;;;;;;;5.99;2.80;;;;;;;;;;359904;147;856145;-56
2021/11/08 11:30:31;;;;;;;6.79;2.90;;;;;;;;;;358411;147;856079;-56
2021/11/08 11:31:34;;;;;;;6.16;2.76;;;;;;;;;;355503;151;856650;-57
2021/11/08 11:32:36;;;;;;;5.35;2.57;;;;;;;;;;354837;148;863690;-58
2021/11/08 11:33:38;;;;;;;5.00;2.90;;;;;;;;;;357717;147;856183;-57
2021/11/08 11:34:40;;;;;;;4.54;2.27;;;;;;;;;;358084;150;863738;-58
2021/11/08 11:35:44;;;;;;;3.69;1.99;;;;;;;;;;357698;147;863660;-57
2021/11/08 11:36:46;;;;;;;5.18;2.25;;;;;;;;;;359757;148;857177;-57
2021/11/08 11:37:51;;;;;;;4.13;2.59;;;;;;;;;;359203;149;856643;-57
2021/11/08 11:38:57;;;;;;;4.06;2.43;;;;;;;;;;360109;149;864404;-57
2021/11/08 11:40:03;;;;;;;5.20;2.54;;;;;;;;;;360109;148;856080;-57
2021/11/08 11:41:06;;;;;;;5.97;2.69;;;;;;;;;;357907;147;857238;-57
2021/11/08 11:42:09;;;;;;;6.46;2.72;;;;;;;;;;356770;149;856086;-57
2021/11/08 11:43:11;;;;;;;5.43;2.80;;;;;;;;;;357340;148;863755;-57
2021/11/08 11:44:15;;;;;;;5.11;2.19;;;;;;;;;;358518;147;856022;-57
2021/11/08 11:45:16;;;;;;;5.14;2.44;;;;;;;;;;355326;148;856276;-55
2021/11/08 11:46:21;;;;;;;4.14;2.21;;;;;;;;;;358492;150;864780;-55
2021/11/08 11:47:22;;;;;;;5.03;2.06;;;;;;;;;;358568;148;858812;-57
2021/11/08 11:48:25;;;;;;;6.08;2.71;;;;;;;;;;359870;148;856672;-57
2021/11/08 11:49:27;;;;;;;5.24;2.25;;;;;;;;;;358968;148;863620;-58
2021/11/08 11:50:31;;;;;;;5.43;3.56;;;;;;;;;;358096;147;856659;-57
2021/11/08 11:51:34;;;;;;;6.52;3.10;;;;;;;;;;357074;148;856625;-58
2021/11/08 11:52:41;;;;;;;5.11;2.61;;;;;;;;;;357172;147;856164;-57
2021/11/08 11:53:39;;;;;;;7.76;2.81;;;;;;;;;;354592;147;856044;-57
2021/11/08 11:54:41;;;;;;;5.92;2.50;;;;;;;;;;358215;147;856675;-57
2021/11/08 11:55:43;;;;;;;6.63;2.78;;;;;;;;;;357934;148;864315;-57
2021/11/08 11:56:45;;;;;;;4.84;2.21;;;;;;;;;;358089;148;863886;-57
2021/11/08 11:57:47;;;;;;;5.09;2.59;;;;;;;;;;352396;148;863877;-56
2021/11/08 11:58:49;;;;;;;4.51;2.22;;;;;;;;;;356223;147;856537;-57
2021/11/08 11:59:51;;;;;;;6.51;2.40;;;;;;;;;;359018;148;856344;-56
2021/11/08 12:00:52;;;;;;;5.04;2.09;;;;;;;;;;357093;151;863686;-57
2021/11/08 12:01:54;;;;;;;4.53;2.29;;;;;;;;;;359287;148;863626;-56
2021/11/08 12:02:56;;;;;;;6.27;2.43;;;;;;;;;;362400;147;856044;-57
2021/11/08 12:03:57;;;;;;;6.18;2.53;;;;;;;;;;359152;148;856099;-56
2021/11/08 12:04:59;;;;;;;5.24;2.34;;;;;;;;;;359519;148;856122;-58
2021/11/08 12:06:01;;;;;;;7.48;2.29;;;;;;;;;;358326;148;857390;-57
2021/11/08 12:07:03;;;;;;;7.51;2.59;;;;;;;;;;356639;148;858285;-57
2021/11/08 12:08:07;;;;;;;4.35;2.18;;;;;;;;;;346144;155;856109;-57
2021/11/08 12:09:09;;;;;;;5.98;2.08;;;;;;;;;;356967;147;860759;-55
2021/11/08 12:10:11;;;;;;;5.77;2.31;;;;;;;;;;357740;148;856617;-55
2021/11/08 12:11:14;;;;;;;8.24;2.76;;;;;;;;;;357355;148;862066;-57
2021/11/08 12:12:22;;;;;;;6.89;2.18;;;;;;;;;;358777;149;857422;-58
2021/11/08 12:13:26;;;;;;;6.02;2.51;;;;;;;;;;357944;148;856172;-57
2021/11/08 12:14:28;;;;;;;6.29;2.29;;;;;;;;;;356848;148;856663;-56
2021/11/08 12:15:30;;;;;;;7.54;2.67;;;;;;;;;;357473;148;863669;-56
2021/11/08 12:16:34;;;;;;;5.44;2.58;;;;;;;;;;357949;148;863997;-57
2021/11/08 12:17:37;;;;;;;6.19;2.45;;;;;;;;;;357392;148;856064;-57
2021/11/08 12:18:38;;;;;;;5.79;2.27;;;;;;;;;;358398;148;863658;-57
2021/11/08 12:19:40;;;;;;;4.01;2.09;;;;;;;;;;359936;148;858037;-57
2021/11/08 12:20:43;;;;;;;6.93;2.30;;;;;;;;;;358762;148;856391;-57
2021/11/08 12:21:45;;;;;;;5.69;2.47;;;;;;;;;;360533;147;856215;-56
2021/11/08 12:22:47;;;;;;;5.21;2.13;;;;;;;;;;356844;147;856729;-57
2021/11/08 12:23:48;;;;;;;6.78;2.44;;;;;;;;;;358186;148;856294;-55
2021/11/08 12:24:56;;;;;;;6.16;2.51;;;;;;;;;;359239;148;856675;-57
2021/11/08 12:25:59;;;;;;;4.36;1.74;;;;;;;;;;356372;148;863522;-57
2021/11/08 12:27:04;;;;;;;3.89;1.99;;;;;;;;;;356909;150;856437;-58
2021/11/08 12:28:08;;;;;;;7.03;2.39;;;;;;;;;;357715;148;856403;-58
2021/11/08 12:29:13;;;;;;;4.59;2.31;;;;;;;;;;358446;148;856889;-57
2021/11/08 12:30:18;;;;;;;4.31;1.92;;;;;;;;;;355459;149;856092;-57
2021/11/08 12:31:22;;;;;;;4.01;2.19;;;;;;;;;;358716;147;856279;-57
2021/11/08 12:32:24;;;;;;;4.58;1.79;;;;;;;;;;357028;148;856116;-57
2021/11/08 12:33:31;;;;;;;4.83;1.68;;;;;;;;;;352815;149;856752;-58
2021/11/08 12:34:41;;;;;;;4.73;1.99;;;;;;;;;;355567;148;855986;-57
2021/11/08 12:35:44;;;;;;;3.24;1.78;;;;;;;;;;359322;148;857284;-57
2021/11/08 12:37:00;;;;;;;4.99;2.13;;;;;;;;;;357828;148;857578;-58
2021/11/08 12:38:04;;;;;;;6.70;2.89;;;;;;;;;;358163;148;856727;-58